sensor_id;sensor_type;location;lat;lon;timestamp;P1;durP1;ratioP1;P2;durP2;ratioP2
53714;SDS011;39608;55.630;37.864;2022-07-22T00:03:03;1.45;;;1.33;;
53714;SDS011;39608;55.630;37.864;2022-07-22T00:08:05;3.78;;;1.60;;
53714;SDS011;39608;55.630;37.864;2022-07-22T00:13:07;5.60;;;1.30;;
53714;SDS011;39608;55.630;37.864;2022-07-22T00:18:10;1.90;;;1.42;;
53714;SDS011;39608;55.630;37.864;2022-07-22T00:23:12;2.10;;;1.35;;
53714;SDS011;39608;55.630;37.864;2022-07-22T00:28:15;3.03;;;1.20;;
53714;SDS011;39608;55.630;37.864;2022-07-22T00:33:18;1.73;;;1.40;;
53714;SDS011;39608;55.630;37.864;2022-07-22T00:38:20;1.33;;;1.23;;
53714;SDS011;39608;55.630;37.864;2022-07-22T00:43:22;3.17;;;1.20;;
53714;SDS011;39608;55.630;37.864;2022-07-22T00:48:26;1.85;;;1.17;;
53714;SDS011;39608;55.630;37.864;2022-07-22T00:53:28;1.48;;;1.10;;
53714;SDS011;39608;55.630;37.864;2022-07-22T00:58:30;2.13;;;1.17;;
53714;SDS011;39608;55.630;37.864;2022-07-22T01:03:34;2.92;;;1.23;;
53714;SDS011;39608;55.630;37.864;2022-07-22T01:08:36;6.07;;;1.10;;
53714;SDS011;39608;55.630;37.864;2022-07-22T01:13:40;3.53;;;1.23;;
53714;SDS011;39608;55.630;37.864;2022-07-22T01:18:44;2.05;;;1.33;;
53714;SDS011;39608;55.630;37.864;2022-07-22T01:23:48;1.10;;;1.10;;
53714;SDS011;39608;55.630;37.864;2022-07-22T01:28:51;3.20;;;1.45;;
53714;SDS011;39608;55.630;37.864;2022-07-22T01:33:53;1.73;;;1.50;;
53714;SDS011;39608;55.630;37.864;2022-07-22T01:38:57;7.30;;;1.50;;
53714;SDS011;39608;55.630;37.864;2022-07-22T01:43:59;1.20;;;1.15;;
53714;SDS011;39608;55.630;37.864;2022-07-22T01:49:01;3.28;;;1.15;;
53714;SDS011;39608;55.630;37.864;2022-07-22T01:54:05;5.20;;;1.25;;
53714;SDS011;39608;55.630;37.864;2022-07-22T01:59:07;1.10;;;1.00;;
53714;SDS011;39608;55.630;37.864;2022-07-22T02:04:09;3.58;;;1.20;;
53714;SDS011;39608;55.630;37.864;2022-07-22T02:09:12;6.95;;;1.40;;
53714;SDS011;39608;55.630;37.864;2022-07-22T02:14:14;1.55;;;1.40;;
53714;SDS011;39608;55.630;37.864;2022-07-22T02:19:16;3.25;;;1.30;;
53714;SDS011;39608;55.630;37.864;2022-07-22T02:24:20;2.33;;;1.23;;
53714;SDS011;39608;55.630;37.864;2022-07-22T02:29:23;2.90;;;1.05;;
53714;SDS011;39608;55.630;37.864;2022-07-22T02:34:26;3.10;;;1.33;;
53714;SDS011;39608;55.630;37.864;2022-07-22T02:39:29;1.95;;;1.10;;
53714;SDS011;39608;55.630;37.864;2022-07-22T02:44:32;1.40;;;1.13;;
53714;SDS011;39608;55.630;37.864;2022-07-22T02:49:34;3.90;;;1.23;;
53714;SDS011;39608;55.630;37.864;2022-07-22T02:54:37;1.60;;;1.08;;
53714;SDS011;39608;55.630;37.864;2022-07-22T02:59:39;3.40;;;1.10;;
53714;SDS011;39608;55.630;37.864;2022-07-22T03:04:42;3.10;;;1.30;;
53714;SDS011;39608;55.630;37.864;2022-07-22T03:09:45;2.20;;;1.10;;
53714;SDS011;39608;55.630;37.864;2022-07-22T03:14:47;8.05;;;1.67;;
53714;SDS011;39608;55.630;37.864;2022-07-22T03:19:49;2.20;;;1.25;;
53714;SDS011;39608;55.630;37.864;2022-07-22T03:24:53;3.83;;;1.45;;
53714;SDS011;39608;55.630;37.864;2022-07-22T03:29:55;3.90;;;1.30;;
53714;SDS011;39608;55.630;37.864;2022-07-22T03:34:57;3.65;;;1.40;;
53714;SDS011;39608;55.630;37.864;2022-07-22T03:40:00;4.03;;;1.55;;
53714;SDS011;39608;55.630;37.864;2022-07-22T03:45:04;1.75;;;1.40;;
53714;SDS011;39608;55.630;37.864;2022-07-22T03:50:06;1.42;;;1.33;;
53714;SDS011;39608;55.630;37.864;2022-07-22T03:55:10;1.33;;;1.23;;
53714;SDS011;39608;55.630;37.864;2022-07-22T04:00:13;4.63;;;1.45;;
53714;SDS011;39608;55.630;37.864;2022-07-22T04:05:15;1.48;;;1.35;;
53714;SDS011;39608;55.630;37.864;2022-07-22T04:10:19;1.77;;;1.30;;
53714;SDS011;39608;55.630;37.864;2022-07-22T04:15:21;2.97;;;1.50;;
53714;SDS011;39608;55.630;37.864;2022-07-22T04:20:23;1.42;;;0.98;;
53714;SDS011;39608;55.630;37.864;2022-07-22T04:25:27;3.30;;;1.20;;
53714;SDS011;39608;55.630;37.864;2022-07-22T04:30:31;2.08;;;1.20;;
53714;SDS011;39608;55.630;37.864;2022-07-22T04:35:33;1.40;;;1.30;;
53714;SDS011;39608;55.630;37.864;2022-07-22T04:40:37;1.00;;;1.00;;
53714;SDS011;39608;55.630;37.864;2022-07-22T04:45:39;1.67;;;1.20;;
53714;SDS011;39608;55.630;37.864;2022-07-22T04:50:43;1.20;;;0.90;;
53714;SDS011;39608;55.630;37.864;2022-07-22T04:55:47;2.28;;;1.13;;
53714;SDS011;39608;55.630;37.864;2022-07-22T05:00:52;4.55;;;1.13;;
53714;SDS011;39608;55.630;37.864;2022-07-22T05:05:54;2.17;;;1.00;;
53714;SDS011;39608;55.630;37.864;2022-07-22T05:10:59;2.20;;;1.10;;
53714;SDS011;39608;55.630;37.864;2022-07-22T05:16:01;1.38;;;1.05;;
53714;SDS011;39608;55.630;37.864;2022-07-22T05:21:04;10.40;;;1.33;;
53714;SDS011;39608;55.630;37.864;2022-07-22T05:26:08;2.25;;;1.10;;
53714;SDS011;39608;55.630;37.864;2022-07-22T05:31:10;1.15;;;0.80;;
53714;SDS011;39608;55.630;37.864;2022-07-22T05:36:12;7.93;;;1.50;;
53714;SDS011;39608;55.630;37.864;2022-07-22T05:41:17;1.67;;;1.20;;
53714;SDS011;39608;55.630;37.864;2022-07-22T05:46:19;3.60;;;1.00;;
53714;SDS011;39608;55.630;37.864;2022-07-22T05:51:21;1.17;;;1.00;;
53714;SDS011;39608;55.630;37.864;2022-07-22T05:56:25;2.90;;;1.15;;
53714;SDS011;39608;55.630;37.864;2022-07-22T06:01:27;2.15;;;1.13;;
53714;SDS011;39608;55.630;37.864;2022-07-22T06:06:29;1.58;;;1.20;;
53714;SDS011;39608;55.630;37.864;2022-07-22T06:11:33;1.75;;;1.00;;
53714;SDS011;39608;55.630;37.864;2022-07-22T06:16:35;1.73;;;0.90;;
53714;SDS011;39608;55.630;37.864;2022-07-22T06:21:38;3.95;;;1.17;;
53714;SDS011;39608;55.630;37.864;2022-07-22T06:26:41;2.92;;;1.05;;
53714;SDS011;39608;55.630;37.864;2022-07-22T06:31:44;4.20;;;1.25;;
53714;SDS011;39608;55.630;37.864;2022-07-22T06:36:46;3.17;;;0.95;;
53714;SDS011;39608;55.630;37.864;2022-07-22T06:41:50;0.88;;;0.88;;
53714;SDS011;39608;55.630;37.864;2022-07-22T06:46:52;3.67;;;1.30;;
53714;SDS011;39608;55.630;37.864;2022-07-22T06:51:54;5.63;;;1.10;;
53714;SDS011;39608;55.630;37.864;2022-07-22T06:56:58;2.15;;;1.10;;
53714;SDS011;39608;55.630;37.864;2022-07-22T07:02:00;2.10;;;1.02;;
53714;SDS011;39608;55.630;37.864;2022-07-22T07:07:02;2.90;;;0.82;;
53714;SDS011;39608;55.630;37.864;2022-07-22T07:12:06;11.18;;;1.20;;
53714;SDS011;39608;55.630;37.864;2022-07-22T07:17:09;2.50;;;1.10;;
53714;SDS011;39608;55.630;37.864;2022-07-22T07:22:11;4.78;;;1.15;;
53714;SDS011;39608;55.630;37.864;2022-07-22T07:27:14;9.32;;;1.27;;
53714;SDS011;39608;55.630;37.864;2022-07-22T07:32:17;1.23;;;1.05;;
53714;SDS011;39608;55.630;37.864;2022-07-22T07:37:19;2.08;;;0.98;;
53714;SDS011;39608;55.630;37.864;2022-07-22T07:42:22;4.35;;;1.20;;
53714;SDS011;39608;55.630;37.864;2022-07-22T07:47:32;2.65;;;1.35;;
53714;SDS011;39608;55.630;37.864;2022-07-22T07:52:37;2.60;;;0.90;;
53714;SDS011;39608;55.630;37.864;2022-07-22T07:57:41;3.75;;;1.23;;
53714;SDS011;39608;55.630;37.864;2022-07-22T08:02:43;3.35;;;1.30;;
53714;SDS011;39608;55.630;37.864;2022-07-22T08:07:46;5.68;;;1.02;;
53714;SDS011;39608;55.630;37.864;2022-07-22T08:12:49;1.38;;;1.10;;
53714;SDS011;39608;55.630;37.864;2022-07-22T08:17:52;3.30;;;1.40;;
53714;SDS011;39608;55.630;37.864;2022-07-22T08:22:55;5.60;;;1.02;;
53714;SDS011;39608;55.630;37.864;2022-07-22T08:27:59;7.07;;;1.00;;
53714;SDS011;39608;55.630;37.864;2022-07-22T08:33:01;2.70;;;0.80;;
53714;SDS011;39608;55.630;37.864;2022-07-22T08:38:04;3.90;;;0.98;;
53714;SDS011;39608;55.630;37.864;2022-07-22T08:43:08;2.80;;;1.00;;
53714;SDS011;39608;55.630;37.864;2022-07-22T08:48:10;1.85;;;0.80;;
53714;SDS011;39608;55.630;37.864;2022-07-22T08:53:12;5.05;;;1.08;;
53714;SDS011;39608;55.630;37.864;2022-07-22T08:58:18;5.22;;;0.93;;
53714;SDS011;39608;55.630;37.864;2022-07-22T09:03:23;4.53;;;0.80;;
53714;SDS011;39608;55.630;37.864;2022-07-22T09:08:28;1.40;;;0.90;;
53714;SDS011;39608;55.630;37.864;2022-07-22T09:13:31;1.55;;;0.90;;
53714;SDS011;39608;55.630;37.864;2022-07-22T09:18:44;6.03;;;1.10;;
53714;SDS011;39608;55.630;37.864;2022-07-22T09:23:47;2.80;;;0.90;;
53714;SDS011;39608;55.630;37.864;2022-07-22T09:28:54;8.23;;;1.10;;
53714;SDS011;39608;55.630;37.864;2022-07-22T09:33:57;1.60;;;0.90;;
53714;SDS011;39608;55.630;37.864;2022-07-22T09:39:00;1.75;;;1.00;;
53714;SDS011;39608;55.630;37.864;2022-07-22T09:44:25;1.75;;;0.80;;
53714;SDS011;39608;55.630;37.864;2022-07-22T09:49:31;1.33;;;0.77;;
53714;SDS011;39608;55.630;37.864;2022-07-22T09:54:34;1.77;;;0.82;;
53714;SDS011;39608;55.630;37.864;2022-07-22T09:59:37;3.15;;;0.95;;
53714;SDS011;39608;55.630;37.864;2022-07-22T10:04:39;8.25;;;1.00;;
53714;SDS011;39608;55.630;37.864;2022-07-22T10:09:42;2.75;;;0.90;;
53714;SDS011;39608;55.630;37.864;2022-07-22T10:14:49;0.80;;;0.80;;
53714;SDS011;39608;55.630;37.864;2022-07-22T10:19:51;9.75;;;1.02;;
53714;SDS011;39608;55.630;37.864;2022-07-22T10:24:59;2.80;;;1.00;;
53714;SDS011;39608;55.630;37.864;2022-07-22T10:30:05;5.85;;;1.35;;
53714;SDS011;39608;55.630;37.864;2022-07-22T10:35:20;2.95;;;1.00;;
53714;SDS011;39608;55.630;37.864;2022-07-22T10:40:27;2.22;;;0.95;;
53714;SDS011;39608;55.630;37.864;2022-07-22T10:45:33;1.15;;;0.77;;
53714;SDS011;39608;55.630;37.864;2022-07-22T10:50:42;2.10;;;1.00;;
53714;SDS011;39608;55.630;37.864;2022-07-22T10:56:07;4.93;;;0.90;;
53714;SDS011;39608;55.630;37.864;2022-07-22T11:01:16;1.65;;;0.95;;
53714;SDS011;39608;55.630;37.864;2022-07-22T11:06:21;6.43;;;1.17;;
53714;SDS011;39608;55.630;37.864;2022-07-22T11:11:37;2.47;;;1.08;;
53714;SDS011;39608;55.630;37.864;2022-07-22T11:16:46;3.70;;;0.98;;
53714;SDS011;39608;55.630;37.864;2022-07-22T11:21:50;1.15;;;0.90;;
53714;SDS011;39608;55.630;37.864;2022-07-22T11:26:54;2.25;;;0.80;;
53714;SDS011;39608;55.630;37.864;2022-07-22T11:32:03;4.10;;;1.15;;
53714;SDS011;39608;55.630;37.864;2022-07-22T11:37:07;7.85;;;1.23;;
53714;SDS011;39608;55.630;37.864;2022-07-22T11:42:09;7.82;;;1.55;;
53714;SDS011;39608;55.630;37.864;2022-07-22T11:47:13;3.63;;;1.02;;
53714;SDS011;39608;55.630;37.864;2022-07-22T11:52:15;4.88;;;1.45;;
53714;SDS011;39608;55.630;37.864;2022-07-22T11:57:19;5.25;;;1.10;;
53714;SDS011;39608;55.630;37.864;2022-07-22T12:02:22;2.78;;;0.80;;
53714;SDS011;39608;55.630;37.864;2022-07-22T12:12:38;2.75;;;0.80;;
53714;SDS011;39608;55.630;37.864;2022-07-22T12:17:42;6.75;;;1.20;;
53714;SDS011;39608;55.630;37.864;2022-07-22T12:22:44;1.67;;;1.08;;
53714;SDS011;39608;55.630;37.864;2022-07-22T12:27:58;1.30;;;1.00;;
53714;SDS011;39608;55.630;37.864;2022-07-22T12:33:03;2.47;;;0.98;;
53714;SDS011;39608;55.630;37.864;2022-07-22T12:38:06;3.97;;;1.13;;
53714;SDS011;39608;55.630;37.864;2022-07-22T12:43:08;2.95;;;0.73;;
53714;SDS011;39608;55.630;37.864;2022-07-22T12:48:12;3.10;;;0.90;;
53714;SDS011;39608;55.630;37.864;2022-07-22T12:53:15;3.60;;;0.80;;
53714;SDS011;39608;55.630;37.864;2022-07-22T12:58:18;1.92;;;1.00;;
53714;SDS011;39608;55.630;37.864;2022-07-22T13:03:22;2.60;;;0.95;;
53714;SDS011;39608;55.630;37.864;2022-07-22T13:08:26;5.50;;;1.52;;
53714;SDS011;39608;55.630;37.864;2022-07-22T13:13:29;2.97;;;1.20;;
53714;SDS011;39608;55.630;37.864;2022-07-22T13:18:32;1.33;;;0.82;;
53714;SDS011;39608;55.630;37.864;2022-07-22T13:23:34;3.40;;;1.20;;
53714;SDS011;39608;55.630;37.864;2022-07-22T13:28:37;6.72;;;1.20;;
53714;SDS011;39608;55.630;37.864;2022-07-22T13:33:40;1.90;;;0.63;;
53714;SDS011;39608;55.630;37.864;2022-07-22T13:38:42;2.83;;;0.88;;
53714;SDS011;39608;55.630;37.864;2022-07-22T13:43:45;6.00;;;1.50;;
53714;SDS011;39608;55.630;37.864;2022-07-22T13:48:50;1.40;;;1.10;;
53714;SDS011;39608;55.630;37.864;2022-07-22T13:53:54;7.03;;;2.15;;
53714;SDS011;39608;55.630;37.864;2022-07-22T13:58:57;6.07;;;1.10;;
53714;SDS011;39608;55.630;37.864;2022-07-22T14:04:03;0.95;;;0.95;;
53714;SDS011;39608;55.630;37.864;2022-07-22T14:09:08;2.55;;;0.95;;
53714;SDS011;39608;55.630;37.864;2022-07-22T14:14:10;6.45;;;1.00;;
53714;SDS011;39608;55.630;37.864;2022-07-22T14:19:16;2.65;;;0.90;;
53714;SDS011;39608;55.630;37.864;2022-07-22T14:24:20;1.15;;;1.00;;
53714;SDS011;39608;55.630;37.864;2022-07-22T14:29:23;0.70;;;0.70;;
53714;SDS011;39608;55.630;37.864;2022-07-22T14:34:26;7.07;;;0.98;;
53714;SDS011;39608;55.630;37.864;2022-07-22T14:39:28;3.15;;;0.90;;
53714;SDS011;39608;55.630;37.864;2022-07-22T14:44:30;2.47;;;1.00;;
53714;SDS011;39608;55.630;37.864;2022-07-22T14:49:35;1.33;;;1.05;;
53714;SDS011;39608;55.630;37.864;2022-07-22T14:54:37;1.07;;;0.90;;
53714;SDS011;39608;55.630;37.864;2022-07-22T14:59:42;1.73;;;0.80;;
53714;SDS011;39608;55.630;37.864;2022-07-22T15:04:49;1.42;;;1.20;;
53714;SDS011;39608;55.630;37.864;2022-07-22T15:09:53;4.13;;;1.02;;
53714;SDS011;39608;55.630;37.864;2022-07-22T15:14:55;5.00;;;0.98;;
53714;SDS011;39608;55.630;37.864;2022-07-22T15:19:59;1.50;;;1.40;;
53714;SDS011;39608;55.630;37.864;2022-07-22T15:25:01;2.38;;;1.10;;
53714;SDS011;39608;55.630;37.864;2022-07-22T15:30:04;7.93;;;1.45;;
53714;SDS011;39608;55.630;37.864;2022-07-22T15:35:08;5.55;;;1.02;;
53714;SDS011;39608;55.630;37.864;2022-07-22T15:40:11;4.22;;;1.08;;
53714;SDS011;39608;55.630;37.864;2022-07-22T15:45:13;2.85;;;1.02;;
53714;SDS011;39608;55.630;37.864;2022-07-22T15:50:17;1.75;;;1.30;;
53714;SDS011;39608;55.630;37.864;2022-07-22T15:55:21;2.90;;;1.20;;
53714;SDS011;39608;55.630;37.864;2022-07-22T16:00:23;1.27;;;1.17;;
53714;SDS011;39608;55.630;37.864;2022-07-22T16:05:27;3.90;;;1.10;;
53714;SDS011;39608;55.630;37.864;2022-07-22T16:10:29;2.33;;;1.23;;
53714;SDS011;39608;55.630;37.864;2022-07-22T16:15:31;1.48;;;1.20;;
53714;SDS011;39608;55.630;37.864;2022-07-22T16:20:35;5.38;;;1.30;;
53714;SDS011;39608;55.630;37.864;2022-07-22T16:25:37;3.58;;;1.52;;
53714;SDS011;39608;55.630;37.864;2022-07-22T16:30:39;3.08;;;1.20;;
53714;SDS011;39608;55.630;37.864;2022-07-22T16:35:43;2.45;;;1.33;;
53714;SDS011;39608;55.630;37.864;2022-07-22T16:40:45;1.27;;;1.17;;
53714;SDS011;39608;55.630;37.864;2022-07-22T16:45:47;3.05;;;1.20;;
53714;SDS011;39608;55.630;37.864;2022-07-22T16:50:51;2.65;;;1.15;;
53714;SDS011;39608;55.630;37.864;2022-07-22T16:55:53;6.90;;;1.40;;
53714;SDS011;39608;55.630;37.864;2022-07-22T17:00:55;9.30;;;2.22;;
53714;SDS011;39608;55.630;37.864;2022-07-22T17:05:59;1.65;;;1.38;;
53714;SDS011;39608;55.630;37.864;2022-07-22T17:11:01;3.30;;;1.42;;
53714;SDS011;39608;55.630;37.864;2022-07-22T17:16:04;3.55;;;1.23;;
53714;SDS011;39608;55.630;37.864;2022-07-22T17:21:09;1.10;;;1.10;;
53714;SDS011;39608;55.630;37.864;2022-07-22T17:26:17;2.65;;;1.40;;
53714;SDS011;39608;55.630;37.864;2022-07-22T17:31:19;4.13;;;1.65;;
53714;SDS011;39608;55.630;37.864;2022-07-22T17:36:24;1.92;;;1.50;;
53714;SDS011;39608;55.630;37.864;2022-07-22T17:41:27;2.35;;;1.52;;
53714;SDS011;39608;55.630;37.864;2022-07-22T17:46:29;2.08;;;1.30;;
53714;SDS011;39608;55.630;37.864;2022-07-22T17:51:32;3.78;;;1.88;;
53714;SDS011;39608;55.630;37.864;2022-07-22T17:56:35;4.15;;;1.92;;
53714;SDS011;39608;55.630;37.864;2022-07-22T18:01:39;2.55;;;1.35;;
53714;SDS011;39608;55.630;37.864;2022-07-22T18:06:42;2.90;;;1.77;;
53714;SDS011;39608;55.630;37.864;2022-07-22T18:11:44;14.80;;;2.10;;
53714;SDS011;39608;55.630;37.864;2022-07-22T18:16:48;3.33;;;1.80;;
53714;SDS011;39608;55.630;37.864;2022-07-22T18:21:51;3.83;;;1.83;;
53714;SDS011;39608;55.630;37.864;2022-07-22T18:26:54;8.70;;;2.55;;
53714;SDS011;39608;55.630;37.864;2022-07-22T18:31:56;3.22;;;1.85;;
53714;SDS011;39608;55.630;37.864;2022-07-22T18:36:59;10.52;;;2.55;;
53714;SDS011;39608;55.630;37.864;2022-07-22T18:42:01;6.13;;;3.03;;
53714;SDS011;39608;55.630;37.864;2022-07-22T18:47:04;3.80;;;3.03;;
53714;SDS011;39608;55.630;37.864;2022-07-22T18:52:07;3.80;;;2.60;;
53714;SDS011;39608;55.630;37.864;2022-07-22T18:57:09;4.25;;;2.88;;
53714;SDS011;39608;55.630;37.864;2022-07-22T19:02:11;4.28;;;2.45;;
53714;SDS011;39608;55.630;37.864;2022-07-22T19:07:15;2.85;;;2.50;;
53714;SDS011;39608;55.630;37.864;2022-07-22T19:12:17;9.48;;;2.33;;
53714;SDS011;39608;55.630;37.864;2022-07-22T19:17:19;5.00;;;2.60;;
53714;SDS011;39608;55.630;37.864;2022-07-22T19:22:23;5.25;;;2.22;;
53714;SDS011;39608;55.630;37.864;2022-07-22T19:27:25;3.55;;;2.40;;
53714;SDS011;39608;55.630;37.864;2022-07-22T19:32:27;3.20;;;2.70;;
53714;SDS011;39608;55.630;37.864;2022-07-22T19:37:31;3.38;;;2.25;;
53714;SDS011;39608;55.630;37.864;2022-07-22T19:42:33;5.45;;;2.92;;
53714;SDS011;39608;55.630;37.864;2022-07-22T19:47:36;6.85;;;3.30;;
53714;SDS011;39608;55.630;37.864;2022-07-22T19:52:40;4.15;;;2.50;;
53714;SDS011;39608;55.630;37.864;2022-07-22T19:57:42;3.22;;;2.50;;
53714;SDS011;39608;55.630;37.864;2022-07-22T20:02:45;2.83;;;2.40;;
53714;SDS011;39608;55.630;37.864;2022-07-22T20:07:48;3.03;;;2.33;;
53714;SDS011;39608;55.630;37.864;2022-07-22T20:12:51;7.95;;;2.35;;
53714;SDS011;39608;55.630;37.864;2022-07-22T20:17:53;4.97;;;2.60;;
53714;SDS011;39608;55.630;37.864;2022-07-22T20:22:57;9.35;;;3.20;;
53714;SDS011;39608;55.630;37.864;2022-07-22T20:27:59;10.65;;;3.78;;
53714;SDS011;39608;55.630;37.864;2022-07-22T20:33:01;8.70;;;3.70;;
53714;SDS011;39608;55.630;37.864;2022-07-22T20:38:04;14.18;;;3.40;;
53714;SDS011;39608;55.630;37.864;2022-07-22T20:43:07;14.43;;;3.70;;
53714;SDS011;39608;55.630;37.864;2022-07-22T20:48:09;8.13;;;3.65;;
53714;SDS011;39608;55.630;37.864;2022-07-22T20:53:12;6.78;;;3.15;;
53714;SDS011;39608;55.630;37.864;2022-07-22T20:58:14;9.60;;;3.83;;
53714;SDS011;39608;55.630;37.864;2022-07-22T21:03:17;9.98;;;3.90;;
53714;SDS011;39608;55.630;37.864;2022-07-22T21:08:20;6.38;;;3.03;;
53714;SDS011;39608;55.630;37.864;2022-07-22T21:13:22;6.35;;;3.40;;
53714;SDS011;39608;55.630;37.864;2022-07-22T21:18:24;8.50;;;3.28;;
53714;SDS011;39608;55.630;37.864;2022-07-22T21:23:28;7.05;;;3.75;;
53714;SDS011;39608;55.630;37.864;2022-07-22T21:28:32;5.68;;;3.30;;
53714;SDS011;39608;55.630;37.864;2022-07-22T21:33:34;5.15;;;3.45;;
53714;SDS011;39608;55.630;37.864;2022-07-22T21:38:39;7.05;;;3.05;;
53714;SDS011;39608;55.630;37.864;2022-07-22T21:43:41;10.02;;;2.90;;
53714;SDS011;39608;55.630;37.864;2022-07-22T21:48:43;5.43;;;3.67;;
53714;SDS011;39608;55.630;37.864;2022-07-22T21:53:47;11.68;;;3.50;;
53714;SDS011;39608;55.630;37.864;2022-07-22T21:58:49;17.08;;;4.30;;
53714;SDS011;39608;55.630;37.864;2022-07-22T22:03:51;25.67;;;4.85;;
53714;SDS011;39608;55.630;37.864;2022-07-22T22:08:55;12.73;;;3.72;;
53714;SDS011;39608;55.630;37.864;2022-07-22T22:13:57;15.43;;;4.63;;
53714;SDS011;39608;55.630;37.864;2022-07-22T22:18:59;9.45;;;3.70;;
53714;SDS011;39608;55.630;37.864;2022-07-22T22:24:03;9.13;;;3.50;;
53714;SDS011;39608;55.630;37.864;2022-07-22T22:29:07;8.55;;;3.40;;
53714;SDS011;39608;55.630;37.864;2022-07-22T22:34:10;10.88;;;3.45;;
53714;SDS011;39608;55.630;37.864;2022-07-22T22:39:13;20.73;;;4.28;;
53714;SDS011;39608;55.630;37.864;2022-07-22T22:44:15;12.80;;;3.60;;
53714;SDS011;39608;55.630;37.864;2022-07-22T22:49:17;13.30;;;3.92;;
53714;SDS011;39608;55.630;37.864;2022-07-22T22:54:21;24.95;;;4.20;;
53714;SDS011;39608;55.630;37.864;2022-07-22T22:59:23;16.10;;;4.07;;
53714;SDS011;39608;55.630;37.864;2022-07-22T23:04:25;21.00;;;4.20;;
53714;SDS011;39608;55.630;37.864;2022-07-22T23:09:29;10.85;;;3.65;;
53714;SDS011;39608;55.630;37.864;2022-07-22T23:14:31;18.33;;;3.92;;
53714;SDS011;39608;55.630;37.864;2022-07-22T23:19:34;19.73;;;4.18;;
53714;SDS011;39608;55.630;37.864;2022-07-22T23:24:37;24.98;;;4.80;;
53714;SDS011;39608;55.630;37.864;2022-07-22T23:29:39;17.58;;;4.20;;
53714;SDS011;39608;55.630;37.864;2022-07-22T23:34:41;25.70;;;4.57;;
53714;SDS011;39608;55.630;37.864;2022-07-22T23:39:45;20.90;;;4.47;;
53714;SDS011;39608;55.630;37.864;2022-07-22T23:44:47;11.60;;;3.72;;
53714;SDS011;39608;55.630;37.864;2022-07-22T23:49:49;17.10;;;3.75;;
53714;SDS011;39608;55.630;37.864;2022-07-22T23:54:53;12.85;;;3.70;;
53714;SDS011;39608;55.630;37.864;2022-07-22T23:59:55;14.43;;;3.80;;
